createdAt,value
2022-08-18T00:01:11.107Z,27.30
2022-08-18T00:03:57.084Z,27.29
2022-08-18T00:06:30.417Z,27.32
2022-08-18T00:09:00.063Z,27.30
2022-08-18T00:11:41.245Z,27.30
2022-08-18T00:14:21.632Z,27.32
2022-08-18T00:16:53.716Z,27.30
2022-08-18T00:19:47.158Z,27.25
2022-08-18T00:22:16.800Z,27.24
2022-08-18T00:24:48.143Z,27.22
2022-08-18T00:27:22.937Z,27.21
2022-08-18T00:29:53.470Z,27.20
2022-08-18T00:32:24.441Z,27.16
2022-08-18T00:34:52.759Z,27.14
2022-08-18T00:37:23.848Z,27.14
2022-08-18T00:39:53.786Z,27.16
2022-08-18T00:42:28.971Z,27.15
2022-08-18T00:45:03.202Z,27.16
2022-08-18T00:47:32.804Z,27.17
2022-08-18T00:50:22.811Z,27.16
2022-08-18T00:52:55.087Z,27.16
2022-08-18T00:55:24.348Z,27.14
2022-08-18T00:57:54.138Z,27.12
2022-08-18T01:00:23.511Z,27.10
2022-08-18T01:02:55.841Z,27.10
2022-08-18T01:05:35.054Z,27.08
2022-08-18T01:08:06.218Z,27.06
2022-08-18T01:10:38.161Z,27.05
2022-08-18T01:13:07.660Z,27.04
2022-08-18T01:15:36.817Z,27.03
2022-08-18T01:18:29.259Z,27.02
2022-08-18T01:21:17.195Z,27.01
2022-08-18T01:23:48.123Z,27.01
2022-08-18T01:26:16.916Z,27.00
2022-08-18T01:28:46.947Z,27.01
2022-08-18T01:31:31.380Z,27.03
2022-08-18T01:34:01.225Z,27.02
2022-08-18T01:36:30.475Z,27.01
2022-08-18T01:39:01.266Z,26.98
2022-08-18T01:41:33.452Z,26.95
2022-08-18T01:44:03.012Z,26.93
2022-08-18T01:46:34.280Z,26.93
2022-08-18T01:49:03.846Z,26.93
2022-08-18T01:51:40.316Z,26.93
2022-08-18T01:54:13.222Z,26.92
2022-08-18T01:56:43.142Z,26.89
2022-08-18T01:59:15.220Z,26.88
2022-08-18T02:01:53.146Z,26.86
2022-08-18T02:04:35.700Z,26.85
2022-08-18T02:07:08.139Z,26.86
2022-08-18T02:09:39.939Z,26.87
2022-08-18T02:12:10.468Z,26.87
2022-08-18T02:14:39.915Z,26.83
2022-08-18T02:17:11.058Z,26.85
2022-08-18T02:19:42.349Z,26.82
2022-08-18T02:22:13.149Z,26.82
2022-08-18T02:24:44.931Z,26.81
2022-08-18T02:27:14.614Z,26.79
2022-08-18T02:30:02.668Z,26.80
2022-08-18T02:32:31.329Z,26.80
2022-08-18T02:35:01.153Z,26.81
2022-08-18T02:37:31.213Z,26.81
2022-08-18T02:40:02.233Z,26.78
2022-08-18T02:42:33.903Z,26.78
2022-08-18T02:45:03.194Z,26.77
2022-08-18T02:47:33.812Z,26.75
2022-08-18T02:50:03.136Z,26.74
2022-08-18T02:52:35.227Z,26.71
2022-08-18T02:55:06.941Z,26.69
2022-08-18T02:57:36.203Z,26.67
2022-08-18T03:00:06.404Z,26.67
2022-08-18T03:02:41.117Z,26.69
2022-08-18T03:05:14.666Z,26.68
2022-08-18T03:07:44.064Z,26.69
2022-08-18T03:10:33.131Z,26.69
2022-08-18T03:13:05.141Z,26.68
2022-08-18T03:15:34.252Z,26.68
2022-08-18T03:18:03.654Z,26.69
2022-08-18T03:20:33.934Z,26.68
2022-08-18T03:23:10.114Z,26.68
2022-08-18T03:25:46.243Z,26.67
2022-08-18T03:28:15.362Z,26.67
2022-08-18T03:30:44.838Z,26.67
2022-08-18T03:33:16.004Z,26.67
2022-08-18T03:35:44.092Z,26.67
2022-08-18T03:38:13.147Z,26.69
2022-08-18T03:40:43.617Z,26.68
2022-08-18T03:43:49.555Z,26.67
2022-08-18T03:46:03.547Z,26.65
2022-08-18T03:48:33.170Z,26.67
2022-08-18T03:51:05.491Z,26.68
2022-08-18T03:53:37.048Z,26.67
2022-08-18T03:56:09.500Z,26.66
2022-08-18T03:58:40.094Z,26.65
2022-08-18T04:01:09.134Z,26.64
2022-08-18T04:03:40.754Z,26.64
2022-08-18T04:06:12.624Z,26.64
2022-08-18T04:08:42.399Z,26.64
2022-08-18T04:11:13.044Z,26.64
2022-08-18T04:13:43.730Z,26.64
2022-08-18T04:16:13.214Z,26.62
2022-08-18T04:18:42.403Z,26.62
2022-08-18T04:21:13.685Z,26.63
2022-08-18T04:23:43.829Z,26.64
2022-08-18T04:26:19.146Z,26.65
2022-08-18T04:28:50.052Z,26.67
2022-08-18T04:31:23.616Z,26.67
2022-08-18T04:33:53.021Z,26.69
2022-08-18T04:36:22.401Z,26.70
2022-08-18T04:38:52.088Z,26.71
2022-08-18T04:41:27.594Z,26.74
2022-08-18T04:43:59.325Z,26.75
2022-08-18T04:46:28.655Z,26.76
2022-08-18T04:48:59.716Z,26.77
2022-08-18T04:52:38.972Z,26.74
2022-08-18T04:54:18.428Z,26.75
2022-08-18T04:56:47.664Z,26.68
2022-08-18T04:59:18.478Z,26.63
2022-08-18T05:01:48.184Z,26.59
2022-08-18T05:04:18.503Z,26.58
2022-08-18T05:06:47.884Z,26.62
2022-08-18T05:09:22.809Z,26.62
2022-08-18T05:11:52.762Z,26.63
2022-08-18T05:14:23.219Z,26.64
2022-08-18T05:16:52.054Z,26.64
2022-08-18T05:19:23.464Z,26.65
2022-08-18T05:21:59.605Z,26.64
2022-08-18T05:24:36.858Z,26.65
2022-08-18T05:27:08.252Z,26.65
2022-08-18T05:29:41.513Z,26.70
2022-08-18T05:32:12.380Z,26.71
2022-08-18T05:35:04.627Z,26.75
2022-08-18T05:37:37.180Z,26.77
2022-08-18T05:40:11.425Z,26.80
2022-08-18T05:42:41.234Z,26.80
2022-08-18T05:45:13.320Z,26.86
2022-08-18T05:47:42.848Z,26.90
2022-08-18T05:50:13.293Z,26.94
2022-08-18T05:52:45.062Z,26.93
2022-08-18T05:55:34.985Z,26.97
2022-08-18T05:58:05.472Z,26.98
2022-08-18T06:01:26.171Z,27.02
2022-08-18T06:03:57.918Z,27.07
2022-08-18T06:06:29.595Z,27.05
2022-08-18T06:08:59.148Z,27.08
2022-08-18T06:11:28.618Z,27.14
2022-08-18T06:13:59.861Z,27.20
2022-08-18T06:16:37.191Z,27.20
2022-08-18T06:19:11.031Z,27.24
2022-08-18T06:21:42.847Z,27.28
2022-08-18T06:24:18.921Z,27.29
2022-08-18T06:26:51.734Z,27.32
2022-08-18T06:29:28.227Z,27.34
2022-08-18T06:32:01.266Z,27.36
2022-08-18T06:34:37.311Z,27.39
2022-08-18T06:37:10.092Z,27.41
2022-08-18T06:39:44.026Z,27.44
2022-08-18T06:42:13.700Z,27.46
2022-08-18T06:44:45.810Z,27.48
2022-08-18T06:47:16.152Z,27.51
2022-08-18T06:49:48.442Z,27.53
2022-08-18T06:52:27.284Z,27.56
2022-08-18T06:54:57.482Z,27.58
2022-08-18T06:57:30.404Z,27.59
2022-08-18T07:00:00.439Z,27.61
2022-08-18T07:02:46.989Z,27.61
2022-08-18T07:05:23.871Z,27.62
2022-08-18T07:08:15.615Z,27.63
2022-08-18T07:10:48.567Z,27.66
2022-08-18T07:13:26.469Z,27.67
2022-08-18T07:15:56.861Z,27.69
2022-08-18T07:18:27.886Z,27.72
2022-08-18T07:21:00.258Z,27.73
2022-08-18T07:23:38.318Z,27.75
2022-08-18T07:26:10.292Z,27.76
2022-08-18T07:28:41.843Z,27.78
2022-08-18T07:31:17.402Z,27.79
2022-08-18T07:33:51.775Z,27.78
2022-08-18T07:36:21.692Z,27.80
2022-08-18T07:38:54.668Z,27.82
2022-08-18T07:41:26.778Z,27.81
2022-08-18T07:44:09.872Z,27.83
2022-08-18T07:46:45.323Z,27.85
2022-08-18T07:49:21.981Z,27.87
2022-08-18T07:51:55.525Z,27.89
2022-08-18T07:54:48.935Z,27.90
2022-08-18T07:57:25.815Z,27.91
2022-08-18T07:59:58.273Z,27.89
2022-08-18T08:02:37.737Z,27.91
2022-08-18T08:05:15.361Z,27.92
2022-08-18T08:07:50.391Z,27.93
2022-08-18T08:10:33.738Z,27.94
2022-08-18T08:13:10.067Z,27.95
2022-08-18T08:15:44.573Z,27.94
2022-08-18T08:18:14.080Z,27.96
2022-08-18T08:20:45.959Z,27.98
2022-08-18T08:23:24.136Z,28.00
2022-08-18T08:26:11.570Z,28.01
2022-08-18T08:28:43.840Z,28.02
2022-08-18T08:31:36.336Z,28.03
2022-08-18T08:34:06.113Z,28.05
2022-08-18T08:36:37.142Z,28.05
2022-08-18T08:39:15.831Z,28.06
2022-08-18T08:41:47.116Z,28.07
2022-08-18T08:44:23.683Z,28.07
2022-08-18T08:46:55.370Z,28.05
2022-08-18T08:49:38.620Z,28.08
2022-08-18T08:52:11.508Z,28.08
2022-08-18T08:54:47.916Z,28.08
2022-08-18T08:57:17.141Z,28.10
2022-08-18T08:59:47.846Z,28.11
2022-08-18T09:02:54.915Z,28.11
2022-08-18T09:05:25.474Z,28.13
2022-08-18T09:08:11.721Z,28.15
2022-08-18T09:11:00.129Z,28.18
2022-08-18T09:13:43.025Z,28.18
2022-08-18T09:16:22.886Z,28.20
2022-08-18T09:19:13.773Z,28.23
2022-08-18T09:21:45.803Z,28.24
2022-08-18T09:24:22.101Z,28.25
2022-08-18T09:26:57.194Z,28.26
2022-08-18T09:29:28.284Z,28.26
2022-08-18T09:32:33.440Z,28.28
2022-08-18T09:35:27.657Z,28.30
2022-08-18T09:38:12.779Z,28.30
2022-08-18T09:41:04.920Z,28.32
2022-08-18T09:43:39.949Z,28.33
2022-08-18T09:46:12.417Z,28.33
2022-08-18T09:48:43.857Z,28.35
2022-08-18T09:51:23.502Z,28.36
2022-08-18T09:54:13.256Z,28.36
2022-08-18T10:00:31.225Z,28.39
2022-08-18T10:03:12.560Z,28.40
2022-08-18T10:05:43.869Z,28.41
2022-08-18T10:08:35.297Z,28.41
2022-08-18T10:11:16.690Z,28.44
2022-08-18T10:13:56.216Z,28.45
2022-08-18T10:16:31.168Z,28.47
2022-08-18T10:19:09.485Z,28.47
2022-08-18T10:22:11.039Z,28.48
2022-08-18T10:24:43.036Z,28.49
2022-08-18T10:27:36.737Z,28.49
2022-08-18T10:30:07.105Z,28.49
2022-08-18T10:32:53.984Z,28.49
2022-08-18T10:35:56.733Z,28.50
2022-08-18T10:38:49.652Z,28.51
2022-08-18T10:41:25.847Z,28.52
2022-08-18T10:43:57.811Z,28.49
2022-08-18T10:49:25.882Z,28.43
2022-08-18T10:52:29.363Z,28.41
2022-08-18T10:55:12.416Z,28.40
2022-08-18T10:58:01.506Z,28.39
2022-08-18T11:00:50.546Z,28.38
2022-08-18T11:06:21.821Z,28.38
2022-08-18T11:08:55.170Z,28.38
2022-08-18T11:11:37.541Z,28.38
2022-08-18T11:14:15.866Z,28.38
2022-08-18T11:16:50.579Z,28.38
2022-08-18T11:19:24.508Z,28.36
2022-08-18T11:21:54.487Z,28.37
2022-08-18T11:24:25.888Z,28.35
2022-08-18T11:26:55.874Z,28.36
2022-08-18T11:29:32.086Z,28.34
2022-08-18T11:32:06.432Z,28.33
2022-08-18T11:34:45.805Z,28.33
2022-08-18T11:37:28.253Z,28.33
2022-08-18T11:43:29.855Z,28.32
2022-08-18T11:46:14.059Z,28.33
2022-08-18T11:48:52.084Z,28.33
2022-08-18T11:54:24.686Z,28.35
2022-08-18T11:56:54.611Z,28.36
2022-08-18T11:59:55.196Z,28.37
2022-08-18T12:02:26.008Z,28.37
2022-08-18T12:05:03.201Z,28.38
2022-08-18T12:07:37.694Z,28.38
2022-08-18T12:10:25.883Z,28.40
2022-08-18T12:12:59.865Z,28.40
2022-08-18T12:18:28.669Z,28.41
2022-08-18T12:20:59.291Z,28.41
2022-08-18T12:23:38.375Z,28.42
2022-08-18T12:26:27.320Z,28.43
2022-08-18T12:29:04.656Z,28.44
2022-08-18T12:31:42.735Z,28.44
2022-08-18T12:34:17.828Z,28.45
2022-08-18T12:36:47.573Z,28.45
2022-08-18T12:39:17.137Z,28.46
2022-08-18T12:41:47.929Z,28.47
2022-08-18T12:44:18.264Z,28.47
2022-08-18T12:46:46.395Z,28.48
2022-08-18T12:49:19.632Z,28.49
2022-08-18T12:51:50.322Z,28.49
2022-08-18T12:54:20.074Z,28.49
2022-08-18T12:56:55.248Z,28.49
2022-08-18T12:59:25.592Z,28.48
2022-08-18T13:04:43.075Z,28.49
2022-08-18T13:07:13.427Z,28.48
2022-08-18T13:09:53.812Z,28.48
2022-08-18T13:12:25.582Z,28.49
2022-08-18T13:14:55.748Z,28.48
2022-08-18T13:17:30.005Z,28.48
2022-08-18T13:20:05.845Z,28.49
2022-08-18T13:22:35.407Z,28.48
2022-08-18T13:25:07.059Z,28.49
2022-08-18T13:27:45.212Z,28.49
2022-08-18T13:30:17.026Z,28.49
2022-08-18T13:33:05.502Z,28.50
2022-08-18T13:35:38.123Z,28.49
2022-08-18T13:38:18.878Z,28.51
2022-08-18T13:40:53.824Z,28.51
2022-08-18T13:43:26.048Z,28.52
2022-08-18T13:45:56.549Z,28.52
2022-08-18T13:48:26.497Z,28.51
2022-08-18T13:50:56.666Z,28.53
2022-08-18T13:53:27.250Z,28.52
2022-08-18T13:55:58.852Z,28.53
2022-08-18T13:58:29.826Z,28.55
2022-08-18T14:01:22.579Z,28.53
2022-08-18T14:03:50.142Z,28.53
2022-08-18T14:06:22.475Z,28.54
2022-08-18T14:08:55.118Z,28.53
2022-08-18T14:11:27.910Z,28.54
2022-08-18T14:14:04.506Z,28.55
2022-08-18T14:16:34.039Z,28.54
2022-08-18T14:19:30.279Z,28.55
2022-08-18T14:22:16.926Z,28.56
2022-08-18T14:25:04.925Z,28.56
2022-08-18T14:27:35.782Z,28.56
2022-08-18T14:30:07.843Z,28.57
2022-08-18T14:32:36.756Z,28.57
2022-08-18T14:35:34.264Z,28.57
2022-08-18T14:38:09.828Z,28.58
2022-08-18T14:40:41.865Z,28.59
2022-08-18T14:43:14.277Z,28.59
2022-08-18T14:45:48.979Z,28.59
2022-08-18T14:48:21.591Z,28.58
2022-08-18T14:50:52.586Z,28.59
2022-08-18T14:53:23.178Z,28.59
2022-08-18T14:55:53.493Z,28.59
2022-08-18T14:58:26.492Z,28.59
2022-08-18T15:00:58.081Z,28.59
2022-08-18T15:03:31.568Z,28.60
2022-08-18T15:06:04.711Z,28.60
2022-08-18T15:08:35.415Z,28.60
2022-08-18T15:11:11.384Z,28.60
2022-08-18T15:13:43.606Z,28.61
2022-08-18T15:16:16.063Z,28.60
2022-08-18T15:18:45.973Z,28.61
2022-08-18T15:21:35.226Z,28.63
2022-08-18T15:24:24.500Z,28.63
2022-08-18T15:26:57.874Z,28.64
2022-08-18T15:29:32.331Z,28.65
2022-08-18T15:32:10.160Z,28.64
2022-08-18T15:34:46.306Z,28.65
2022-08-18T15:37:19.777Z,28.64
2022-08-18T15:39:55.527Z,28.65
2022-08-18T15:42:25.514Z,28.66
2022-08-18T15:44:58.322Z,28.65
2022-08-18T15:47:42.497Z,28.66
2022-08-18T15:50:26.032Z,28.66
2022-08-18T15:52:57.703Z,28.66
2022-08-18T15:55:29.133Z,28.66
2022-08-18T15:58:11.032Z,28.65
2022-08-18T16:00:42.685Z,28.66
2022-08-18T16:03:21.833Z,28.65
2022-08-18T16:05:53.442Z,28.66
2022-08-18T16:08:23.319Z,28.66
2022-08-18T16:10:52.611Z,28.67
2022-08-18T16:13:26.298Z,28.67
2022-08-18T16:15:54.335Z,28.68
2022-08-18T16:18:24.814Z,28.68
2022-08-18T16:20:56.658Z,28.69
2022-08-18T16:23:26.237Z,28.69
2022-08-18T16:25:54.359Z,28.69
2022-08-18T16:28:34.730Z,28.69
2022-08-18T16:31:05.958Z,28.70
2022-08-18T16:33:36.619Z,28.70
2022-08-18T16:36:06.772Z,28.71
2022-08-18T16:38:37.017Z,28.73
2022-08-18T16:41:11.317Z,28.71
2022-08-18T16:43:44.414Z,28.73
2022-08-18T16:46:14.213Z,28.70
2022-08-18T16:48:45.905Z,28.70
2022-08-18T16:51:15.732Z,28.70
2022-08-18T16:53:45.837Z,28.71
2022-08-18T16:56:15.756Z,28.70
2022-08-18T16:59:02.303Z,28.70
2022-08-18T17:01:51.033Z,28.69
2022-08-18T17:04:22.948Z,28.70
2022-08-18T17:06:52.179Z,28.70
2022-08-18T17:09:21.420Z,28.70
2022-08-18T17:11:51.905Z,28.71
2022-08-18T17:14:21.988Z,28.70
2022-08-18T17:16:54.323Z,28.72
2022-08-18T17:19:26.206Z,28.71
2022-08-18T17:21:55.277Z,28.73
2022-08-18T17:24:31.919Z,28.73
2022-08-18T17:27:19.198Z,28.73
2022-08-18T17:30:03.310Z,28.73
2022-08-18T17:35:14.229Z,28.73
2022-08-18T17:37:49.430Z,28.72
2022-08-18T17:40:21.169Z,28.73
2022-08-18T17:42:51.578Z,28.71
2022-08-18T17:45:22.196Z,28.71
2022-08-18T17:47:55.332Z,28.72
2022-08-18T17:50:46.093Z,28.73
2022-08-18T17:53:15.830Z,28.71
2022-08-18T17:55:46.569Z,28.70
2022-08-18T17:58:29.389Z,28.69
2022-08-18T18:00:58.904Z,28.70
2022-08-18T18:03:28.583Z,28.69
2022-08-18T18:06:04.705Z,28.70
2022-08-18T18:08:52.336Z,28.71
2022-08-18T18:11:26.524Z,28.70
2022-08-18T18:13:55.784Z,28.70
2022-08-18T18:16:28.480Z,28.71
2022-08-18T18:19:01.608Z,28.71
2022-08-18T18:22:00.958Z,28.72
2022-08-18T18:24:24.200Z,28.71
2022-08-18T18:26:53.653Z,28.71
2022-08-18T18:29:29.294Z,28.73
2022-08-18T18:32:02.701Z,28.73
2022-08-18T18:34:39.520Z,28.72
2022-08-18T18:37:25.055Z,28.72
2022-08-18T18:39:57.660Z,28.71
2022-08-18T18:42:27.861Z,28.71
2022-08-18T18:44:58.256Z,28.72
2022-08-18T18:47:45.497Z,28.73
2022-08-18T18:50:18.564Z,28.73
2022-08-18T18:53:08.893Z,28.71
2022-08-18T18:55:41.251Z,28.70
2022-08-18T18:58:15.813Z,28.71
2022-08-18T19:00:55.853Z,28.72
2022-08-18T19:03:29.787Z,28.71
2022-08-18T19:06:14.096Z,28.71
2022-08-18T19:08:50.547Z,28.69
2022-08-18T19:11:22.488Z,28.70
2022-08-18T19:13:55.333Z,28.70
2022-08-18T19:16:26.028Z,28.71
2022-08-18T19:18:57.985Z,28.71
2022-08-18T19:22:04.914Z,28.71
2022-08-18T19:24:44.649Z,28.73
2022-08-18T19:27:23.195Z,28.72
2022-08-18T19:29:54.960Z,28.73
2022-08-18T19:32:29.071Z,28.73
2022-08-18T19:34:58.656Z,28.74
2022-08-18T19:37:32.355Z,28.76
2022-08-18T19:40:07.408Z,28.77
2022-08-18T19:42:40.738Z,28.78
2022-08-18T19:45:16.862Z,28.78
2022-08-18T19:47:49.986Z,28.78
2022-08-18T19:50:24.647Z,28.78
2022-08-18T19:53:02.438Z,28.78
2022-08-18T19:55:36.921Z,28.79
2022-08-18T19:58:15.459Z,28.77
2022-08-18T20:00:47.305Z,28.78
2022-08-18T20:03:51.539Z,28.79
2022-08-18T20:06:42.508Z,28.80
2022-08-18T20:09:35.738Z,28.80
2022-08-18T20:12:23.063Z,28.79
2022-08-18T20:15:00.825Z,28.79
2022-08-18T20:17:30.077Z,28.80
2022-08-18T20:20:18.304Z,28.81
2022-08-18T20:22:48.050Z,28.81
2022-08-18T20:25:41.571Z,28.81
2022-08-18T20:28:35.283Z,28.81
2022-08-18T20:31:13.197Z,28.82
2022-08-18T20:33:46.204Z,28.83
2022-08-18T20:36:25.433Z,28.83
2022-08-18T20:38:55.674Z,28.83
2022-08-18T20:41:43.506Z,28.84
2022-08-18T20:44:40.400Z,28.84
2022-08-18T20:47:38.253Z,28.85
2022-08-18T20:50:43.213Z,28.84
2022-08-18T20:53:18.676Z,28.83
2022-08-18T20:55:57.338Z,28.83
2022-08-18T20:58:28.243Z,28.83
2022-08-18T21:01:00.291Z,28.84
2022-08-18T21:03:36.226Z,28.86
2022-08-18T21:06:05.589Z,28.87
2022-08-18T21:08:36.469Z,28.86
2022-08-18T21:11:07.014Z,28.88
2022-08-18T21:13:40.682Z,28.90
2022-08-18T21:16:12.478Z,28.91
2022-08-18T21:18:47.574Z,28.91
2022-08-18T21:21:26.826Z,28.93
2022-08-18T21:23:57.347Z,28.92
2022-08-18T21:26:26.972Z,28.92
2022-08-18T21:29:00.389Z,28.92
2022-08-18T21:31:43.952Z,28.92
2022-08-18T21:34:18.417Z,28.93
2022-08-18T21:36:53.671Z,28.93
2022-08-18T21:39:23.174Z,28.94
2022-08-18T21:41:55.229Z,28.93
2022-08-18T21:44:26.423Z,28.94
2022-08-18T21:47:06.501Z,28.93
2022-08-18T21:49:35.818Z,28.91
2022-08-18T21:52:05.486Z,28.90
2022-08-18T21:54:34.917Z,28.88
2022-08-18T21:57:23.436Z,28.90
2022-08-18T22:00:18.424Z,28.90
2022-08-18T22:02:52.185Z,28.88
2022-08-18T22:05:29.518Z,28.88
2022-08-18T22:08:20.394Z,28.86
2022-08-18T22:11:41.800Z,28.86
2022-08-18T22:14:36.133Z,28.86
2022-08-18T22:17:30.459Z,28.86
2022-08-18T22:20:47.641Z,28.86
2022-08-18T22:23:46.267Z,28.85
2022-08-18T22:26:19.159Z,28.85
2022-08-18T22:28:53.866Z,28.85
2022-08-18T22:31:23.549Z,28.86
2022-08-18T22:33:53.331Z,28.86
2022-08-18T22:36:24.909Z,28.86
2022-08-18T22:38:55.475Z,28.85
2022-08-18T22:41:25.633Z,28.85
2022-08-18T22:43:57.604Z,28.86
2022-08-18T22:46:29.116Z,28.86
2022-08-18T22:48:58.572Z,28.88
2022-08-18T22:51:28.965Z,28.86
2022-08-18T22:53:59.224Z,28.88
2022-08-18T22:56:34.925Z,28.87
2022-08-18T22:59:13.969Z,28.88
2022-08-18T23:01:46.308Z,28.87
2022-08-18T23:04:16.755Z,28.87
2022-08-18T23:06:52.317Z,28.87
2022-08-18T23:09:25.136Z,28.87
2022-08-18T23:11:55.845Z,28.87
2022-08-18T23:14:25.398Z,28.86
2022-08-18T23:16:54.444Z,28.86
2022-08-18T23:19:23.730Z,28.85
2022-08-18T23:21:53.232Z,28.86
2022-08-18T23:24:24.975Z,28.88
2022-08-18T23:26:54.709Z,28.86
2022-08-18T23:29:23.851Z,28.84
2022-08-18T23:31:51.913Z,28.84
2022-08-18T23:34:23.152Z,28.82
2022-08-18T23:36:56.559Z,28.81
2022-08-18T23:39:27.428Z,28.81
2022-08-18T23:41:56.759Z,28.79
2022-08-18T23:44:27.477Z,28.80
2022-08-18T23:46:58.050Z,28.79
2022-08-18T23:49:29.127Z,28.80
2022-08-18T23:51:58.386Z,28.81
2022-08-18T23:54:31.094Z,28.80
2022-08-18T23:57:00.771Z,28.80
2022-08-18T23:59:30.113Z,28.81
